Time;durP1;ratioP1;P1;durP2;ratioP2;P2;SDS_P1;SDS_P2;PMS_P1;PMS_P2;Temp;Humidity;BMP_temperature;BMP_pressure;BME280_temperature;BME280_humidity;BME280_pressure;Samples;Min_cycle;Max_cycle;Signal;HPM_P1;HPM_P2
2023/12/22 00:02:21;;;;;;;0.00;0.00;;;5.90;99.90;;;;;;4974661;28;20030;-68
2023/12/22 00:04:46;;;;;;;0.57;0.17;;;5.80;99.90;;;;;;4988287;28;20080;-68
2023/12/22 00:07:12;;;;;;;6.30;0.28;;;5.90;99.90;;;;;;4987795;28;20038;-68
2023/12/22 00:09:38;;;;;;;0.00;0.00;;;5.90;99.90;;;;;;4993806;28;20437;-68
2023/12/22 00:12:04;;;;;;;0.63;0.57;;;5.90;99.90;;;;;;4981187;28;20033;-68
2023/12/22 00:14:30;;;;;;;0.68;0.17;;;5.90;99.90;;;;;;4988715;28;20408;-68
2023/12/22 00:16:55;;;;;;;0.05;0.05;;;5.90;99.90;;;;;;4989211;28;20144;-68
2023/12/22 00:19:21;;;;;;;0.00;0.00;;;5.90;99.90;;;;;;4993064;28;20038;-68
2023/12/22 00:21:47;;;;;;;0.08;0.08;;;5.90;99.90;;;;;;4990567;28;20631;-68
2023/12/22 00:24:13;;;;;;;0.70;0.10;;;5.90;99.90;;;;;;4992528;28;20030;-68
2023/12/22 00:26:38;;;;;;;0.32;0.32;;;5.90;99.90;;;;;;4992554;28;20044;-68
2023/12/22 00:29:04;;;;;;;0.10;0.10;;;5.80;99.90;;;;;;4987285;28;20018;-66
2023/12/22 00:31:30;;;;;;;0.10;0.10;;;5.80;99.90;;;;;;4988550;28;20022;-66
2023/12/22 00:33:55;;;;;;;0.40;0.32;;;5.80;99.90;;;;;;4988944;28;20538;-67
2023/12/22 00:36:24;;;;;;;0.00;0.00;;;5.70;99.90;;;;;;4983855;28;20447;-67
2023/12/22 00:38:50;;;;;;;0.00;0.00;;;5.80;99.90;;;;;;4990159;28;20061;-66
2023/12/22 00:41:16;;;;;;;0.35;0.35;;;5.80;99.90;;;;;;4991526;28;20030;-66
2023/12/22 00:43:42;;;;;;;0.98;0.55;;;5.80;99.90;;;;;;4992849;28;20044;-66
2023/12/22 00:46:07;;;;;;;1.77;0.25;;;5.80;99.90;;;;;;4955202;28;20049;-66
2023/12/22 00:48:33;;;;;;;1.65;0.38;;;5.80;99.90;;;;;;4993396;28;20033;-66
2023/12/22 00:50:59;;;;;;;0.20;0.20;;;5.70;99.90;;;;;;4984054;28;20081;-66
2023/12/22 00:53:25;;;;;;;0.20;0.20;;;5.70;99.90;;;;;;4995639;28;20105;-66
2023/12/22 00:55:51;;;;;;;0.75;0.28;;;5.80;99.90;;;;;;4987391;28;20045;-66
2023/12/22 00:58:17;;;;;;;0.00;0.00;;;5.70;99.90;;;;;;4987579;28;20437;-68
2023/12/22 01:00:43;;;;;;;0.20;0.15;;;5.60;99.90;;;;;;4986172;28;20037;-67
2023/12/22 01:03:13;;;;;;;1.45;0.10;;;5.60;99.90;;;;;;4958835;28;20116;-67
2023/12/22 01:05:41;;;;;;;0.43;0.10;;;5.60;99.90;;;;;;4980911;28;20034;-67
2023/12/22 01:08:07;;;;;;;0.10;0.10;;;5.60;99.90;;;;;;4985011;28;20029;-68
2023/12/22 01:10:33;;;;;;;0.00;0.00;;;5.50;99.90;;;;;;4984277;28;20109;-66
2023/12/22 01:12:59;;;;;;;0.10;0.10;;;5.40;99.90;;;;;;4973929;28;20383;-67
2023/12/22 01:15:24;;;;;;;0.65;0.30;;;5.40;99.90;;;;;;4991489;28;20030;-66
2023/12/22 01:17:50;;;;;;;0.13;0.13;;;5.50;99.90;;;;;;4993965;28;20034;-66
2023/12/22 01:20:16;;;;;;;0.47;0.30;;;5.50;99.90;;;;;;4988287;28;20165;-67
2023/12/22 01:22:41;;;;;;;0.10;0.10;;;5.50;99.90;;;;;;4984090;28;20038;-67
2023/12/22 01:25:07;;;;;;;2.40;0.38;;;5.40;99.90;;;;;;4995665;28;20032;-67
2023/12/22 01:27:33;;;;;;;0.10;0.10;;;5.40;99.90;;;;;;4991585;28;20081;-68
2023/12/22 01:29:59;;;;;;;0.38;0.28;;;5.40;99.90;;;;;;4989838;28;20081;-68
2023/12/22 01:32:24;;;;;;;0.25;0.17;;;5.40;99.90;;;;;;4994411;28;20026;-67
2023/12/22 01:34:50;;;;;;;0.30;0.17;;;5.50;99.90;;;;;;4992907;28;20031;-67
2023/12/22 01:37:16;;;;;;;0.35;0.20;;;5.50;99.90;;;;;;4998163;28;20026;-67
2023/12/22 01:39:42;;;;;;;0.20;0.20;;;5.50;99.90;;;;;;4991525;28;20452;-67
2023/12/22 01:42:07;;;;;;;0.52;0.50;;;5.50;99.90;;;;;;4977564;28;20026;-67
2023/12/22 01:44:33;;;;;;;0.13;0.10;;;5.50;99.90;;;;;;4996458;28;20039;-68
2023/12/22 01:46:59;;;;;;;0.10;0.10;;;5.60;99.90;;;;;;4992350;28;20027;-67
2023/12/22 01:49:25;;;;;;;0.40;0.40;;;5.60;99.90;;;;;;4994377;28;20026;-68
2023/12/22 01:51:52;;;;;;;0.95;0.30;;;5.60;99.90;;;;;;4999911;28;20130;-68
2023/12/22 01:54:19;;;;;;;5.78;0.32;;;5.70;99.90;;;;;;4976265;28;20030;-67
2023/12/22 01:56:46;;;;;;;0.10;0.10;;;5.70;99.90;;;;;;4993673;28;20042;-67
2023/12/22 01:59:12;;;;;;;0.13;0.13;;;5.70;99.90;;;;;;4973220;28;20030;-67
2023/12/22 02:01:39;;;;;;;0.13;0.13;;;5.80;99.90;;;;;;4990747;28;20034;-67
2023/12/22 02:04:05;;;;;;;0.85;0.45;;;5.80;99.90;;;;;;4985727;28;20477;-67
2023/12/22 02:06:35;;;;;;;0.10;0.10;;;5.80;99.90;;;;;;4983623;28;20053;-67
2023/12/22 02:09:03;;;;;;;0.17;0.17;;;5.90;99.90;;;;;;4986529;28;20058;-68
2023/12/22 02:11:29;;;;;;;1.35;0.47;;;6.10;99.90;;;;;;4975229;28;20030;-67
2023/12/22 02:13:55;;;;;;;0.20;0.20;;;6.30;99.90;;;;;;4986390;28;20591;-68
2023/12/22 02:17:14;;;;;;;1.65;0.98;;;6.40;99.90;;;;;;4983463;28;20534;-68
2023/12/22 02:19:45;;;;;;;1.00;0.30;;;6.20;99.90;;;;;;4995359;28;20049;-68
2023/12/22 02:22:12;;;;;;;0.55;0.30;;;6.20;99.90;;;;;;4975407;28;20530;-68
2023/12/22 02:24:42;;;;;;;0.52;0.50;;;6.20;99.90;;;;;;4976500;28;20030;-68
2023/12/22 02:27:22;;;;;;;1.35;0.22;;;6.30;99.90;;;;;;4978797;28;20046;-67
2023/12/22 02:30:34;;;;;;;1.73;0.88;;;6.90;99.90;;;;;;4994042;28;20053;-67
2023/12/22 02:33:04;;;;;;;2.90;0.57;;;7.30;99.90;;;;;;4963169;28;20031;-68
2023/12/22 02:35:33;;;;;;;0.20;0.20;;;7.70;99.90;;;;;;4983673;28;20430;-68
2023/12/22 02:38:01;;;;;;;7.68;1.33;;;7.80;99.90;;;;;;4981485;28;20053;-68
2023/12/22 02:40:28;;;;;;;7.53;1.10;;;7.90;99.90;;;;;;4986427;28;20045;-68
2023/12/22 02:42:54;;;;;;;3.08;1.73;;;8.00;99.90;;;;;;4978553;28;20038;-68
2023/12/22 02:45:20;;;;;;;1.77;1.65;;;8.00;99.90;;;;;;4976344;28;20025;-66
2023/12/22 02:47:47;;;;;;;1.25;0.70;;;8.00;99.90;;;;;;4984556;28;20401;-66
2023/12/22 02:50:15;;;;;;;1.05;0.30;;;7.90;99.90;;;;;;4983864;28;20423;-66
2023/12/22 02:52:42;;;;;;;0.40;0.30;;;7.90;99.90;;;;;;4985000;28;20064;-66
2023/12/22 02:55:08;;;;;;;2.63;0.52;;;7.90;99.90;;;;;;4986682;28;20026;-66
2023/12/22 02:57:33;;;;;;;2.78;0.65;;;7.80;99.90;;;;;;4988114;28;20390;-66
2023/12/22 02:59:59;;;;;;;3.92;0.90;;;7.80;99.90;;;;;;4986350;28;20023;-66
2023/12/22 03:02:25;;;;;;;0.17;0.13;;;7.80;99.90;;;;;;4978293;28;20027;-66
2023/12/22 03:04:51;;;;;;;0.30;0.13;;;7.70;99.90;;;;;;4970489;28;20034;-66
2023/12/22 03:07:17;;;;;;;0.22;0.20;;;7.70;99.90;;;;;;4966557;28;20033;-66
2023/12/22 03:09:43;;;;;;;0.10;0.10;;;7.60;99.90;;;;;;4978949;28;20584;-66
2023/12/22 03:12:10;;;;;;;3.53;0.43;;;7.50;99.90;;;;;;4976968;28;20029;-66
2023/12/22 03:14:36;;;;;;;3.00;0.30;;;7.50;99.90;;;;;;4985555;28;20482;-66
2023/12/22 03:17:03;;;;;;;1.40;0.73;;;7.50;99.90;;;;;;4982006;28;20062;-66
2023/12/22 03:19:29;;;;;;;0.70;0.22;;;7.50;99.90;;;;;;4969692;28;20038;-66
2023/12/22 03:21:56;;;;;;;2.97;0.73;;;7.50;99.90;;;;;;4979852;28;20026;-66
2023/12/22 03:24:23;;;;;;;0.50;0.30;;;7.50;99.90;;;;;;4987426;28;20039;-66
2023/12/22 03:26:49;;;;;;;0.25;0.22;;;7.50;99.90;;;;;;4977659;28;20038;-66
2023/12/22 03:29:15;;;;;;;0.55;0.32;;;7.60;99.90;;;;;;4985768;28;20046;-66
2023/12/22 03:31:41;;;;;;;2.25;0.63;;;7.70;99.90;;;;;;4976916;28;20030;-66
2023/12/22 03:34:07;;;;;;;6.35;1.52;;;7.70;99.90;;;;;;4985429;28;20704;-66
2023/12/22 03:36:33;;;;;;;1.00;0.50;;;7.70;99.90;;;;;;4989571;28;20068;-66
2023/12/22 03:38:59;;;;;;;2.47;0.40;;;7.70;99.90;;;;;;4985382;28;20142;-66
2023/12/22 03:41:25;;;;;;;1.27;0.40;;;7.90;99.90;;;;;;4989342;28;20030;-66
2023/12/22 03:43:50;;;;;;;9.20;0.68;;;8.00;99.90;;;;;;4983241;28;20499;-66
2023/12/22 03:46:16;;;;;;;3.20;1.10;;;8.20;99.90;;;;;;4988311;28;20391;-66
2023/12/22 03:48:42;;;;;;;1.85;0.80;;;8.30;99.90;;;;;;4964142;28;20178;-66
2023/12/22 03:51:10;;;;;;;3.90;0.60;;;8.30;99.90;;;;;;4973683;28;20424;-66
2023/12/22 03:53:36;;;;;;;1.17;0.50;;;8.40;99.90;;;;;;4984472;28;20026;-66
2023/12/22 03:56:02;;;;;;;0.63;0.50;;;8.50;99.90;;;;;;4985158;28;20506;-66
2023/12/22 03:58:29;;;;;;;3.70;0.73;;;8.70;99.90;;;;;;4996875;28;20465;-66
2023/12/22 04:00:55;;;;;;;2.25;1.13;;;8.80;99.90;;;;;;4989421;28;20038;-66
2023/12/22 04:03:21;;;;;;;0.32;0.32;;;9.00;99.90;;;;;;4987456;28;20031;-67
2023/12/22 04:05:47;;;;;;;1.15;0.63;;;9.10;99.90;;;;;;4977370;28;20125;-66
2023/12/22 04:08:13;;;;;;;0.32;0.25;;;9.20;99.90;;;;;;4987544;28;20026;-67
2023/12/22 04:10:38;;;;;;;0.38;0.30;;;9.30;99.90;;;;;;4990063;28;20504;-66
2023/12/22 04:13:04;;;;;;;1.23;0.73;;;9.30;99.90;;;;;;4989122;28;20034;-67
2023/12/22 04:15:30;;;;;;;1.08;0.55;;;9.30;99.90;;;;;;4977774;28;20034;-67
2023/12/22 04:17:55;;;;;;;4.30;0.85;;;9.40;99.90;;;;;;4963511;28;20030;-67
2023/12/22 04:20:21;;;;;;;2.40;0.47;;;9.40;99.90;;;;;;4991089;28;20037;-67
2023/12/22 04:22:47;;;;;;;2.50;0.63;;;9.40;99.90;;;;;;4984729;28;20037;-66
2023/12/22 04:25:13;;;;;;;1.85;0.40;;;9.50;99.90;;;;;;4990295;28;20065;-67
2023/12/22 04:27:38;;;;;;;3.22;0.60;;;9.50;99.90;;;;;;4984680;28;20060;-67
2023/12/22 04:30:05;;;;;;;1.63;0.30;;;9.50;99.90;;;;;;4986057;28;20102;-67
2023/12/22 04:32:31;;;;;;;1.65;0.50;;;9.40;99.90;;;;;;4986693;28;20084;-66
2023/12/22 04:34:56;;;;;;;0.77;0.40;;;9.00;99.90;;;;;;4984958;28;20535;-68
2023/12/22 04:37:24;;;;;;;0.95;0.17;;;8.60;99.90;;;;;;4990992;28;20097;-68
2023/12/22 04:39:49;;;;;;;8.70;1.58;;;8.30;99.90;;;;;;4988544;28;20044;-68
2023/12/22 04:42:15;;;;;;;3.25;1.35;;;8.20;99.90;;;;;;4991009;28;20471;-68
2023/12/22 04:44:41;;;;;;;1.27;0.35;;;8.00;99.90;;;;;;4990980;28;20106;-68
2023/12/22 04:47:07;;;;;;;2.22;0.20;;;7.90;99.90;;;;;;4988028;28;20371;-68
2023/12/22 04:49:33;;;;;;;1.17;0.40;;;7.90;99.90;;;;;;4987246;28;20042;-68
2023/12/22 04:51:58;;;;;;;4.50;0.82;;;7.90;99.90;;;;;;4995698;28;20378;-67
2023/12/22 04:54:24;;;;;;;3.67;0.30;;;7.80;99.90;;;;;;4972294;28;20419;-68
2023/12/22 04:56:50;;;;;;;1.15;0.45;;;7.80;99.90;;;;;;4990454;28;20038;-68
2023/12/22 04:59:15;;;;;;;4.65;0.95;;;7.70;99.90;;;;;;4974659;28;20637;-67
2023/12/22 05:01:42;;;;;;;3.13;0.43;;;7.80;99.90;;;;;;4975494;28;20042;-67
2023/12/22 05:04:09;;;;;;;5.47;0.95;;;7.80;99.90;;;;;;4999951;28;20510;-67
2023/12/22 05:06:35;;;;;;;3.22;0.80;;;7.80;99.90;;;;;;4993922;28;20457;-67
2023/12/22 05:09:01;;;;;;;0.73;0.50;;;7.80;99.90;;;;;;5001288;28;20062;-68
2023/12/22 05:11:26;;;;;;;1.33;0.90;;;7.90;99.90;;;;;;4989798;28;20057;-68
2023/12/22 05:13:52;;;;;;;1.33;0.50;;;7.90;99.90;;;;;;4990553;28;20093;-68
2023/12/22 05:16:18;;;;;;;0.20;0.20;;;7.80;99.90;;;;;;5001615;28;20037;-68
2023/12/22 05:18:44;;;;;;;2.45;0.40;;;7.70;99.90;;;;;;4997057;28;20038;-68
2023/12/22 05:21:15;;;;;;;0.32;0.17;;;7.60;99.90;;;;;;4995743;28;20026;-68
2023/12/22 05:23:41;;;;;;;0.40;0.25;;;7.60;99.90;;;;;;4989975;28;20102;-68
2023/12/22 05:26:08;;;;;;;0.38;0.20;;;7.60;99.90;;;;;;4997342;28;20048;-68
2023/12/22 05:28:34;;;;;;;3.10;0.70;;;7.60;99.90;;;;;;4984855;28;20498;-68
2023/12/22 05:30:59;;;;;;;0.30;0.28;;;7.60;99.90;;;;;;4985530;28;20372;-69
2023/12/22 05:33:25;;;;;;;1.08;0.47;;;7.60;99.90;;;;;;4994330;28;20041;-69
2023/12/22 05:35:52;;;;;;;0.52;0.38;;;7.70;99.90;;;;;;4985795;28;20034;-70
2023/12/22 05:38:18;;;;;;;0.45;0.30;;;7.70;99.90;;;;;;4963803;28;20125;-69
2023/12/22 05:40:44;;;;;;;0.50;0.32;;;7.80;99.90;;;;;;4991666;28;20113;-69
2023/12/22 05:43:10;;;;;;;6.50;1.52;;;7.80;99.90;;;;;;4973253;28;20085;-69
2023/12/22 05:45:36;;;;;;;2.13;0.40;;;7.90;99.90;;;;;;4973046;28;20026;-70
2023/12/22 05:48:02;;;;;;;4.68;0.28;;;8.00;99.90;;;;;;4991048;28;20029;-70
2023/12/22 05:50:28;;;;;;;3.53;0.93;;;8.10;99.90;;;;;;4990672;28;20049;-70
2023/12/22 05:52:54;;;;;;;1.85;0.95;;;8.20;99.90;;;;;;4998103;28;20066;-70
2023/12/22 05:55:19;;;;;;;4.88;0.45;;;8.20;99.90;;;;;;4989158;28;20371;-70
2023/12/22 05:57:45;;;;;;;3.30;1.17;;;8.30;99.90;;;;;;4986980;28;20171;-70
2023/12/22 06:00:12;;;;;;;6.82;0.82;;;8.20;99.90;;;;;;4993242;28;20068;-70
2023/12/22 06:02:38;;;;;;;1.13;0.32;;;8.30;99.90;;;;;;4974145;28;20038;-70
2023/12/22 06:05:04;;;;;;;1.45;0.45;;;8.30;99.90;;;;;;4987348;28;20509;-70
2023/12/22 06:07:30;;;;;;;7.38;1.10;;;8.40;99.90;;;;;;4990079;28;20590;-69
2023/12/22 06:09:56;;;;;;;2.65;0.82;;;8.40;99.90;;;;;;4977854;28;20034;-71
2023/12/22 06:12:21;;;;;;;1.10;0.85;;;8.40;99.90;;;;;;4989551;28;20038;-70
2023/12/22 06:14:47;;;;;;;0.88;0.43;;;8.50;99.90;;;;;;4992112;28;20030;-70
2023/12/22 06:17:13;;;;;;;6.35;1.38;;;8.60;99.90;;;;;;5005214;28;20054;-69
2023/12/22 06:19:39;;;;;;;4.80;1.83;;;8.60;99.90;;;;;;4997812;28;20038;-69
2023/12/22 06:22:05;;;;;;;7.65;0.88;;;8.60;99.90;;;;;;4999856;28;20402;-69
2023/12/22 06:24:31;;;;;;;4.50;0.40;;;8.70;99.90;;;;;;4994238;28;20045;-69
2023/12/22 06:26:57;;;;;;;7.32;0.70;;;8.70;99.90;;;;;;4993288;28;20129;-69
2023/12/22 06:29:23;;;;;;;4.00;1.13;;;8.70;99.90;;;;;;4990549;28;20403;-69
2023/12/22 06:31:50;;;;;;;0.55;0.40;;;8.70;99.90;;;;;;4996982;28;20030;-69
2023/12/22 06:34:17;;;;;;;3.83;0.82;;;8.70;99.90;;;;;;5001695;28;20029;-68
2023/12/22 06:36:43;;;;;;;4.07;0.70;;;8.80;99.90;;;;;;4994252;28;20031;-69
2023/12/22 06:39:09;;;;;;;3.28;0.77;;;8.80;99.90;;;;;;4990148;28;20034;-67
2023/12/22 06:41:35;;;;;;;3.97;1.13;;;8.80;99.90;;;;;;4994264;28;20030;-68
2023/12/22 06:44:00;;;;;;;4.55;1.13;;;8.90;99.90;;;;;;5001412;28;20038;-68
2023/12/22 06:46:27;;;;;;;1.10;0.50;;;9.10;99.90;;;;;;4976658;28;20466;-66
2023/12/22 06:48:54;;;;;;;1.75;1.20;;;9.10;99.90;;;;;;4994055;28;20557;-67
2023/12/22 06:51:26;;;;;;;5.35;0.82;;;9.10;99.90;;;;;;4976570;28;20042;-66
2023/12/22 06:53:52;;;;;;;0.52;0.52;;;9.10;99.90;;;;;;4977175;28;20475;-66
2023/12/22 06:56:24;;;;;;;3.78;1.02;;;9.10;99.90;;;;;;4988260;28;20664;-67
2023/12/22 06:58:52;;;;;;;6.35;1.35;;;9.10;99.90;;;;;;4974757;28;20486;-66
2023/12/22 07:01:25;;;;;;;1.27;0.63;;;9.20;99.90;;;;;;4986071;28;20084;-66
2023/12/22 07:03:51;;;;;;;4.53;0.77;;;9.30;99.90;;;;;;4990779;28;20033;-66
2023/12/22 07:06:18;;;;;;;6.25;0.93;;;9.40;99.90;;;;;;5002419;28;20531;-66
2023/12/22 07:08:49;;;;;;;4.28;0.88;;;9.30;99.90;;;;;;5007444;28;20113;-66
2023/12/22 07:11:15;;;;;;;5.93;0.90;;;9.30;99.90;;;;;;4989045;28;20026;-67
2023/12/22 07:13:40;;;;;;;0.77;0.35;;;9.40;99.90;;;;;;4997190;28;20054;-65
2023/12/22 07:16:06;;;;;;;7.20;0.60;;;9.30;99.90;;;;;;5008595;28;20091;-65
2023/12/22 07:18:32;;;;;;;4.22;1.02;;;9.30;99.90;;;;;;5002552;28;20083;-66
2023/12/22 07:21:00;;;;;;;11.73;2.08;;;9.30;99.90;;;;;;5004158;28;20038;-67
2023/12/22 07:23:26;;;;;;;0.95;0.52;;;9.20;99.90;;;;;;4957285;28;20038;-67
2023/12/22 07:25:51;;;;;;;1.25;0.60;;;9.30;99.90;;;;;;5004753;28;20065;-68
2023/12/22 07:28:17;;;;;;;10.70;1.30;;;9.20;99.90;;;;;;4987505;28;20029;-68
2023/12/22 07:30:43;;;;;;;10.57;1.27;;;9.30;99.90;;;;;;5010162;28;20474;-71
2023/12/22 07:33:08;;;;;;;4.90;1.00;;;9.20;99.90;;;;;;4994177;28;20038;-71
2023/12/22 07:35:34;;;;;;;1.30;0.45;;;9.30;99.90;;;;;;4978183;28;20034;-72
2023/12/22 07:38:02;;;;;;;4.00;1.02;;;9.20;99.90;;;;;;4975974;28;20045;-71
2023/12/22 07:40:30;;;;;;;0.57;0.28;;;9.20;99.90;;;;;;5009440;28;20501;-72
2023/12/22 07:42:57;;;;;;;0.70;0.43;;;9.20;99.90;;;;;;4976117;28;20045;-72
2023/12/22 07:45:22;;;;;;;0.50;0.50;;;9.20;99.90;;;;;;5008962;28;20312;-72
2023/12/22 07:47:49;;;;;;;4.07;0.85;;;9.10;99.90;;;;;;5000043;28;20092;-72
2023/12/22 07:50:15;;;;;;;0.52;0.22;;;9.10;99.90;;;;;;4960649;28;20043;-72
2023/12/22 07:52:40;;;;;;;4.25;0.70;;;9.10;99.90;;;;;;5005489;28;20041;-72
2023/12/22 07:55:11;;;;;;;1.05;0.38;;;9.00;99.90;;;;;;4980685;28;20034;-71
2023/12/22 07:57:38;;;;;;;2.40;0.57;;;9.00;99.90;;;;;;4983942;28;20025;-72
2023/12/22 08:00:05;;;;;;;5.45;0.75;;;9.00;99.90;;;;;;4990025;28;20128;-72
2023/12/22 08:02:31;;;;;;;0.55;0.32;;;9.00;99.90;;;;;;4996966;28;20081;-72
2023/12/22 08:04:57;;;;;;;4.65;0.55;;;9.00;99.90;;;;;;4988458;28;20030;-71
2023/12/22 08:07:23;;;;;;;3.10;0.35;;;9.00;99.90;;;;;;4961579;28;20101;-71
2023/12/22 08:09:48;;;;;;;0.75;0.22;;;9.00;99.90;;;;;;4983202;28;20030;-71
2023/12/22 08:12:15;;;;;;;7.47;0.60;;;9.00;99.90;;;;;;4995542;28;20558;-71
2023/12/22 08:14:40;;;;;;;4.97;1.98;;;8.90;99.90;;;;;;5010866;28;20481;-71
2023/12/22 08:17:06;;;;;;;3.63;0.65;;;9.00;99.90;;;;;;4978765;28;20030;-72
2023/12/22 08:19:32;;;;;;;0.80;0.35;;;8.90;99.90;;;;;;4988979;28;20089;-71
2023/12/22 08:21:58;;;;;;;0.22;0.22;;;9.00;99.90;;;;;;4979140;28;20038;-72
2023/12/22 08:24:24;;;;;;;12.40;0.57;;;8.90;99.90;;;;;;4983013;28;20475;-70
2023/12/22 08:26:53;;;;;;;0.57;0.38;;;8.80;99.90;;;;;;4981910;28;20073;-72
2023/12/22 08:29:19;;;;;;;1.67;0.17;;;8.70;99.90;;;;;;4989484;28;20027;-71
2023/12/22 08:31:45;;;;;;;1.00;0.30;;;8.30;99.90;;;;;;4982760;28;20106;-71
2023/12/22 08:34:11;;;;;;;1.17;0.35;;;8.10;99.90;;;;;;5007267;28;20033;-71
2023/12/22 08:36:37;;;;;;;0.77;0.68;;;7.90;99.90;;;;;;5010682;28;20022;-71
2023/12/22 08:39:04;;;;;;;4.55;0.38;;;7.80;99.90;;;;;;5005827;28;20049;-72
2023/12/22 08:41:35;;;;;;;12.40;0.55;;;7.70;99.90;;;;;;5011959;28;20101;-71
2023/12/22 08:44:06;;;;;;;0.88;0.68;;;7.80;99.90;;;;;;4978436;28;20034;-71
2023/12/22 08:46:32;;;;;;;0.55;0.30;;;7.80;99.90;;;;;;4993183;28;20026;-72
2023/12/22 08:49:01;;;;;;;5.38;0.80;;;7.90;99.90;;;;;;5000898;28;20030;-71
2023/12/22 08:51:27;;;;;;;1.30;0.50;;;8.00;99.90;;;;;;4978832;28;20038;-71
2023/12/22 08:53:57;;;;;;;0.77;0.32;;;8.10;99.90;;;;;;4969943;28;20084;-71
2023/12/22 08:56:24;;;;;;;4.15;0.60;;;8.10;99.90;;;;;;4987246;28;20057;-71
2023/12/22 08:58:54;;;;;;;3.40;0.30;;;8.20;99.90;;;;;;4978047;28;20029;-71
2023/12/22 09:01:21;;;;;;;1.27;0.65;;;8.30;99.90;;;;;;5012005;28;20521;-71
2023/12/22 09:03:48;;;;;;;0.90;0.40;;;8.40;99.90;;;;;;4998018;28;20062;-66
2023/12/22 09:06:15;;;;;;;5.28;0.75;;;8.40;99.90;;;;;;4992015;28;20445;-66
2023/12/22 09:08:42;;;;;;;5.47;0.57;;;8.40;99.90;;;;;;4994470;28;20037;-67
2023/12/22 09:11:10;;;;;;;6.80;1.10;;;8.40;99.90;;;;;;5011128;28;20022;-67
2023/12/22 09:13:35;;;;;;;2.00;0.93;;;8.50;99.90;;;;;;4996941;28;20129;-67
2023/12/22 09:16:05;;;;;;;5.00;1.45;;;8.60;99.90;;;;;;4980790;28;20118;-68
2023/12/22 09:18:31;;;;;;;6.10;1.63;;;8.70;99.90;;;;;;4986211;28;20080;-66
2023/12/22 09:20:57;;;;;;;5.57;0.63;;;8.70;99.90;;;;;;4990865;28;20030;-66
2023/12/22 09:23:24;;;;;;;11.23;0.80;;;8.80;99.90;;;;;;4996902;28;20073;-66
2023/12/22 09:25:49;;;;;;;11.88;1.30;;;8.80;99.90;;;;;;5011830;28;20084;-66
2023/12/22 09:28:16;;;;;;;9.25;2.35;;;8.80;99.90;;;;;;5005033;28;20121;-66
2023/12/22 09:30:42;;;;;;;6.05;1.05;;;8.80;99.90;;;;;;4985743;28;20526;-67
2023/12/22 09:33:09;;;;;;;1.38;0.93;;;8.90;99.90;;;;;;4973918;28;20157;-66
2023/12/22 09:35:36;;;;;;;9.32;1.88;;;8.90;99.90;;;;;;4989174;28;20023;-67
2023/12/22 09:38:03;;;;;;;6.43;1.70;;;9.00;99.90;;;;;;4981550;28;20033;-67
2023/12/22 09:40:30;;;;;;;18.58;1.27;;;9.00;99.90;;;;;;4982410;28;20050;-67
2023/12/22 09:42:57;;;;;;;2.55;0.90;;;9.00;99.90;;;;;;4971261;28;20069;-67
2023/12/22 09:45:24;;;;;;;4.30;0.85;;;9.00;99.90;;;;;;4985722;28;20092;-67
2023/12/22 09:47:52;;;;;;;4.95;1.65;;;9.00;99.90;;;;;;5003498;28;20474;-67
2023/12/22 09:50:19;;;;;;;17.00;2.10;;;9.10;99.90;;;;;;4997728;28;20026;-67
2023/12/22 09:52:45;;;;;;;14.52;1.60;;;9.20;99.90;;;;;;4999982;28;20095;-67
2023/12/22 09:55:13;;;;;;;4.15;0.82;;;9.20;99.90;;;;;;5014870;28;20754;-67
2023/12/22 09:57:39;;;;;;;9.68;1.83;;;9.20;99.90;;;;;;4975670;28;20046;-66
2023/12/22 10:00:12;;;;;;;5.35;1.15;;;9.20;99.90;;;;;;4966874;28;20049;-66
2023/12/22 10:02:39;;;;;;;7.30;1.20;;;9.30;99.90;;;;;;4995568;28;20023;-66
2023/12/22 10:05:05;;;;;;;9.88;1.75;;;9.40;99.90;;;;;;5009725;28;20034;-67
2023/12/22 10:07:33;;;;;;;8.05;1.58;;;9.40;99.90;;;;;;4980878;28;20022;-67
2023/12/22 10:10:00;;;;;;;2.78;0.98;;;9.40;99.90;;;;;;5009565;28;20549;-66
2023/12/22 10:12:29;;;;;;;4.82;2.53;;;9.50;99.90;;;;;;4992420;28;20034;-67
2023/12/22 10:14:56;;;;;;;14.23;1.50;;;9.50;99.90;;;;;;4992614;28;20029;-69
2023/12/22 10:17:22;;;;;;;2.10;0.57;;;9.50;99.90;;;;;;4977621;28;20037;-68
2023/12/22 10:19:48;;;;;;;10.15;1.60;;;9.50;99.90;;;;;;4985726;28;20032;-67
2023/12/22 10:22:14;;;;;;;16.17;1.55;;;9.50;99.90;;;;;;4994774;28;20034;-66
2023/12/22 10:24:47;;;;;;;16.35;1.67;;;9.60;99.90;;;;;;4979278;28;20505;-65
2023/12/22 10:27:21;;;;;;;7.53;1.30;;;9.60;99.90;;;;;;5000892;28;20463;-66
2023/12/22 10:29:56;;;;;;;6.85;1.40;;;9.60;99.90;;;;;;4977421;28;20109;-66
2023/12/22 10:32:22;;;;;;;7.97;0.75;;;9.70;99.90;;;;;;4976290;28;20046;-67
2023/12/22 10:34:51;;;;;;;14.68;3.63;;;9.70;99.90;;;;;;4994557;28;20060;-66
2023/12/22 10:37:17;;;;;;;6.80;1.17;;;9.70;99.90;;;;;;4998700;28;20070;-67
2023/12/22 10:39:43;;;;;;;11.48;1.75;;;9.70;99.90;;;;;;4994054;28;20113;-66
2023/12/22 10:42:09;;;;;;;8.57;1.95;;;9.70;99.90;;;;;;4976530;28;20039;-65
2023/12/22 10:44:39;;;;;;;4.53;1.00;;;9.70;99.90;;;;;;4992637;28;20076;-66
2023/12/22 10:47:06;;;;;;;3.80;0.88;;;9.70;99.90;;;;;;4977642;28;20047;-66
2023/12/22 10:49:33;;;;;;;10.05;1.85;;;9.80;99.90;;;;;;4959769;28;20397;-66
2023/12/22 10:51:59;;;;;;;10.40;1.52;;;9.80;99.90;;;;;;5008639;28;20029;-66
2023/12/22 10:54:25;;;;;;;9.55;0.82;;;9.80;99.90;;;;;;5009454;28;20022;-66
2023/12/22 10:56:52;;;;;;;2.08;0.57;;;9.80;99.90;;;;;;5007107;28;20075;-67
2023/12/22 10:59:23;;;;;;;15.18;2.55;;;9.80;99.90;;;;;;4979629;28;20080;-66
2023/12/22 11:01:53;;;;;;;8.23;2.42;;;9.80;99.90;;;;;;4992407;28;20408;-66
2023/12/22 11:04:22;;;;;;;7.63;1.20;;;9.80;99.90;;;;;;4991898;28;20072;-66
2023/12/22 11:06:51;;;;;;;4.53;1.02;;;9.80;99.90;;;;;;4976463;28;20030;-66
2023/12/22 11:09:20;;;;;;;7.45;1.25;;;9.80;99.90;;;;;;4992283;28;20109;-67
2023/12/22 11:11:48;;;;;;;9.20;1.25;;;9.90;99.90;;;;;;5008739;28;20030;-66
2023/12/22 11:14:14;;;;;;;7.03;1.02;;;9.90;99.90;;;;;;4992029;28;20084;-66
2023/12/22 11:16:47;;;;;;;1.42;0.60;;;9.80;99.90;;;;;;4991719;28;20101;-65
2023/12/22 11:19:14;;;;;;;8.32;1.80;;;9.90;99.90;;;;;;4991524;28;20411;-65
2023/12/22 11:21:40;;;;;;;3.72;0.98;;;10.00;99.90;;;;;;5010579;28;20021;-64
2023/12/22 11:24:08;;;;;;;9.25;1.60;;;9.90;99.90;;;;;;4998860;28;20046;-66
2023/12/22 11:26:34;;;;;;;7.97;1.60;;;9.80;99.90;;;;;;4977823;28;20078;-65
2023/12/22 11:29:03;;;;;;;1.85;0.63;;;9.80;99.90;;;;;;4977612;28;20098;-66
2023/12/22 11:31:32;;;;;;;13.75;1.02;;;9.60;99.90;;;;;;5001350;28;20483;-66
2023/12/22 11:33:59;;;;;;;5.55;0.65;;;9.50;99.90;;;;;;4990654;28;20030;-67
2023/12/22 11:36:26;;;;;;;1.08;0.65;;;9.40;99.90;;;;;;5006620;28;20113;-65
2023/12/22 11:38:52;;;;;;;4.43;0.73;;;9.30;99.90;;;;;;4989217;28;20026;-65
2023/12/22 11:41:29;;;;;;;10.65;1.70;;;9.20;99.90;;;;;;5002314;28;20034;-65
2023/12/22 11:43:57;;;;;;;6.10;2.47;;;9.10;99.90;;;;;;4983792;28;20027;-65
2023/12/22 11:46:25;;;;;;;6.40;0.75;;;9.20;99.90;;;;;;4987481;28;20038;-64
2023/12/22 11:48:52;;;;;;;2.03;0.98;;;9.10;99.90;;;;;;4983843;28;20033;-65
2023/12/22 11:51:20;;;;;;;7.10;0.77;;;9.10;99.90;;;;;;4999757;28;20018;-65
2023/12/22 11:53:45;;;;;;;5.25;0.93;;;9.00;99.90;;;;;;5003680;28;20022;-65
2023/12/22 11:56:13;;;;;;;4.05;0.95;;;9.10;99.90;;;;;;5003668;28;20482;-65
2023/12/22 11:58:41;;;;;;;6.95;0.90;;;9.30;99.90;;;;;;5003006;28;20030;-64
2023/12/22 12:01:12;;;;;;;3.28;0.52;;;9.40;99.90;;;;;;5006638;28;20034;-64
2023/12/22 12:03:59;;;;;;;0.57;0.45;;;9.40;99.90;;;;;;4992399;28;20035;-64
2023/12/22 12:06:25;;;;;;;7.10;0.50;;;9.50;99.90;;;;;;4989690;28;20034;-65
2023/12/22 12:08:53;;;;;;;1.13;0.35;;;9.60;99.90;;;;;;5008261;28;20037;-65
2023/12/22 12:11:20;;;;;;;1.75;0.55;;;9.70;99.90;;;;;;4999835;28;20379;-65
2023/12/22 12:13:47;;;;;;;3.60;1.38;;;9.80;99.90;;;;;;5008463;28;20471;-65
2023/12/22 12:16:16;;;;;;;0.73;0.40;;;9.90;99.90;;;;;;4988205;28;20291;-65
2023/12/22 12:18:42;;;;;;;1.38;0.75;;;9.90;99.90;;;;;;5009983;28;20032;-66
2023/12/22 12:21:10;;;;;;;4.03;0.20;;;9.90;99.90;;;;;;4989199;28;20113;-65
2023/12/22 12:23:36;;;;;;;2.42;0.50;;;9.80;99.90;;;;;;4989905;28;20030;-66
2023/12/22 12:26:03;;;;;;;0.60;0.40;;;9.80;99.90;;;;;;4980562;28;20030;-65
2023/12/22 12:28:31;;;;;;;1.77;0.40;;;9.90;99.90;;;;;;4991791;28;20022;-65
2023/12/22 12:31:04;;;;;;;1.05;0.30;;;9.80;99.90;;;;;;4980468;28;20459;-65
2023/12/22 12:33:30;;;;;;;1.15;0.63;;;9.90;99.90;;;;;;5001418;28;20363;-65
2023/12/22 12:35:59;;;;;;;0.20;0.20;;;9.90;99.90;;;;;;5009337;28;20113;-67
2023/12/22 12:38:53;;;;;;;1.13;0.98;;;9.90;99.90;;;;;;4983428;28;20386;-66
2023/12/22 12:41:31;;;;;;;2.78;1.17;;;9.90;99.90;;;;;;5001784;28;20038;-66
2023/12/22 12:43:58;;;;;;;0.30;0.30;;;9.90;99.90;;;;;;4989770;28;20022;-66
2023/12/22 12:46:34;;;;;;;1.52;0.40;;;10.00;99.90;;;;;;5003014;28;20121;-66
2023/12/22 12:49:07;;;;;;;0.20;0.20;;;10.10;99.90;;;;;;4980650;28;20547;-67
2023/12/22 12:51:47;;;;;;;0.47;0.32;;;10.00;99.90;;;;;;4980961;28;20034;-66
2023/12/22 12:54:14;;;;;;;0.20;0.13;;;10.00;99.90;;;;;;4980188;28;20032;-65
2023/12/22 12:56:42;;;;;;;0.25;0.15;;;10.00;99.90;;;;;;4976862;28;20076;-67